»·PEaware :: N927JC KLGB-KMRY

N927JC :: KLGB-KMRY

FLIGHT INFORMATION

Flight Status: Arrived
Operator: Privately registered:
United States
More flights under this callsign
Pilot: Daniel B. (28719)
Aircraft: CESSNA 172 SKYHAWK
(C172)
More flights by this aircraft type
Origin: KLGB Long Beach
United States
Destination: KMRY Monterey Peninsula
United States
More flights between these airports :: More routes between these airports
Route: LAX VTU RZS GVO V27 MQO BLANC BSR
File this flight plan on PilotEdge
Remarks:
Altitude:
(Current/Filed)
10,000ft
Speed:
(Current/Filed)
115kts
Departed: 02-Jan-21 09:45 AM
Arrived: 02-Jan-21 12:51 PM
Distance/Time
Traveled:
246nm/3:06
Distance/Time
To Go:
Arrived

Flight Plot

Page will automatically refresh every two minutes.

Flight plan parsing failed; only flown route is shown


Map Options




Map Legend


Flown Route
Filed Route
Departure Airport
Arrival Airport
Navaid (VOR, NDB)
Fix

Horizontal Profiles

Position Reports

Time Latitude Longitude Heading Altitude Ground
Speed
02-Jan-21 09:09 33.818712 -118.157852 190 48ft 0kts
02-Jan-21 09:10 33.818712 -118.157852 190 48ft 0kts
02-Jan-21 09:11 33.818712 -118.157852 190 48ft 0kts
02-Jan-21 09:12 33.818712 -118.157852 190 48ft 0kts
02-Jan-21 09:13 33.818712 -118.157852 190 48ft 0kts
02-Jan-21 09:14 33.818712 -118.157852 190 48ft 0kts
02-Jan-21 09:15 33.818712 -118.157852 190 48ft 0kts
02-Jan-21 09:16 33.818712 -118.157852 190 48ft 0kts
02-Jan-21 09:17 33.818712 -118.157852 190 48ft 0kts
02-Jan-21 09:18 33.818712 -118.157852 190 48ft 0kts
02-Jan-21 09:19 33.818707 -118.157853 188 48ft 0kts
02-Jan-21 09:20 33.818707 -118.157853 188 48ft 0kts
02-Jan-21 09:21 33.818705 -118.157853 188 48ft 0kts
02-Jan-21 09:22 33.818705 -118.157853 188 48ft 0kts
02-Jan-21 09:23 33.818705 -118.157853 188 48ft 0kts
02-Jan-21 09:24 33.818705 -118.157853 188 48ft 0kts
02-Jan-21 09:25 33.818705 -118.157853 188 48ft 0kts
02-Jan-21 09:26 33.818705 -118.157853 188 48ft 0kts
02-Jan-21 09:27 33.818705 -118.157853 188 48ft 0kts
02-Jan-21 09:28 33.818705 -118.157853 188 48ft 0kts
02-Jan-21 09:29 33.818705 -118.157853 188 48ft 0kts
02-Jan-21 09:30 33.818705 -118.157853 188 48ft 0kts
02-Jan-21 09:31 33.818705 -118.157853 188 48ft 0kts
02-Jan-21 09:32 33.818705 -118.157853 188 48ft 0kts
02-Jan-21 09:33 33.819128 -118.157540 355 47ft 11kts
02-Jan-21 09:34 33.817557 -118.157661 178 48ft 12kts
02-Jan-21 09:35 33.819023 -118.157303 359 47ft 21kts
02-Jan-21 09:36 33.821676 -118.156618 90 50ft 12kts
02-Jan-21 09:37 33.821652 -118.151993 89 44ft 25kts
02-Jan-21 09:38 33.821620 -118.146826 90 40ft 23kts
02-Jan-21 09:39 33.821829 -118.144254 52 37ft 0kts
02-Jan-21 09:40 33.821829 -118.144254 52 37ft 0kts
02-Jan-21 09:41 33.821836 -118.144243 52 37ft 0kts
02-Jan-21 09:42 33.821836 -118.144243 52 37ft 0kts
02-Jan-21 09:43 33.822704 -118.144216 278 37ft 19kts
02-Jan-21 09:44 33.822969 -118.157688 273 341ft 83kts
02-Jan-21 09:45 33.822578 -118.175835 261 930ft 89kts
02-Jan-21 09:46 33.812869 -118.192051 230 1543ft 92kts
02-Jan-21 09:47 33.800521 -118.209343 232 2211ft 93kts
02-Jan-21 09:48 33.786897 -118.228920 234 2912ft 94kts
02-Jan-21 09:49 33.770816 -118.250989 230 3660ft 96kts
02-Jan-21 09:50 33.751342 -118.275708 231 4459ft 97kts
02-Jan-21 09:51 33.743594 -118.300417 331 5207ft 80kts
02-Jan-21 09:52 33.758824 -118.310143 333 5817ft 78kts
02-Jan-21 09:53 33.773617 -118.319610 330 6408ft 77kts
02-Jan-21 09:54 33.788357 -118.329580 331 6965ft 77kts
02-Jan-21 09:55 33.806066 -118.341771 330 6987ft 104kts
02-Jan-21 09:56 33.826320 -118.355647 329 6982ft 106kts
02-Jan-21 09:57 33.846928 -118.371172 330 6984ft 106kts
02-Jan-21 09:58 33.867867 -118.385221 331 6979ft 106kts
02-Jan-21 09:59 33.888255 -118.398966 330 6979ft 106kts
02-Jan-21 10:00 33.907700 -118.413544 329 6970ft 107kts
02-Jan-21 10:01 33.928032 -118.431706 306 6982ft 108kts
02-Jan-21 10:02 33.939237 -118.473211 292 6993ft 112kts
02-Jan-21 10:03 33.952032 -118.521304 302 7012ft 110kts
02-Jan-21 10:04 33.969432 -118.563949 303 8011ft 77kts
02-Jan-21 10:05 33.982468 -118.601548 299 8994ft 76kts
02-Jan-21 10:06 33.995138 -118.638267 300 9870ft 75kts
02-Jan-21 10:07 34.008793 -118.680773 292 9980ft 101kts
02-Jan-21 10:08 34.018898 -118.715975 292 10036ft 95kts
02-Jan-21 10:09 34.027563 -118.746561 291 9980ft 99kts
02-Jan-21 10:10 34.036283 -118.777735 290 9987ft 94kts
02-Jan-21 10:11 34.043372 -118.808151 294 10021ft 94kts
02-Jan-21 10:13 34.052418 -118.837857 291 10003ft 98kts
02-Jan-21 10:14 34.061340 -118.868113 292 10027ft 95kts
02-Jan-21 10:15 34.070191 -118.898783 292 9997ft 98kts
02-Jan-21 10:16 34.079237 -118.929417 295 9989ft 97kts
02-Jan-21 10:17 34.088566 -118.959981 291 9977ft 97kts
02-Jan-21 10:18 34.096759 -118.990606 291 10025ft 95kts
02-Jan-21 10:19 34.105344 -119.021538 291 10017ft 97kts
02-Jan-21 10:20 34.115887 -119.051471 304 9999ft 99kts
02-Jan-21 10:21 34.131266 -119.078781 304 9990ft 98kts
02-Jan-21 10:22 34.146522 -119.105819 304 9986ft 98kts
02-Jan-21 10:23 34.161683 -119.133076 303 9984ft 97kts
02-Jan-21 10:24 34.176605 -119.160327 305 9983ft 97kts
02-Jan-21 10:25 34.191486 -119.187362 305 9986ft 97kts
02-Jan-21 10:25 34.203911 -119.209925 305 9994ft 96kts
02-Jan-21 10:27 34.221555 -119.241282 305 9997ft 96kts
02-Jan-21 10:28 34.236511 -119.268239 306 9987ft 97kts
02-Jan-21 10:29 34.251540 -119.295216 305 9976ft 97kts
02-Jan-21 10:29 34.263853 -119.317970 305 9973ft 96kts
02-Jan-21 10:30 34.278823 -119.345040 305 9963ft 96kts
02-Jan-21 10:32 34.296035 -119.376515 305 9979ft 95kts
02-Jan-21 10:32 34.308008 -119.399167 304 9987ft 96kts
02-Jan-21 10:33 34.322542 -119.426220 305 9997ft 96kts
02-Jan-21 10:34 34.337334 -119.453119 305 10005ft 96kts
02-Jan-21 10:35 34.352125 -119.480229 304 9994ft 97kts
02-Jan-21 10:36 34.367219 -119.507511 304 9962ft 98kts
02-Jan-21 10:37 34.382140 -119.534600 304 9990ft 95kts
02-Jan-21 10:38 34.396946 -119.561637 303 10000ft 96kts
02-Jan-21 10:39 34.411676 -119.588838 303 10005ft 96kts
02-Jan-21 10:40 34.426289 -119.616232 303 10000ft 96kts
02-Jan-21 10:41 34.440450 -119.644068 302 9977ft 97kts
02-Jan-21 10:42 34.455360 -119.671844 305 9971ft 98kts
02-Jan-21 10:43 34.470352 -119.699241 303 9980ft 97kts
02-Jan-21 10:44 34.485376 -119.726654 304 9985ft 97kts
02-Jan-21 10:45 34.501256 -119.753337 306 9987ft 97kts
02-Jan-21 10:46 34.510157 -119.784089 279 9969ft 101kts
02-Jan-21 10:47 34.512936 -119.817721 281 9983ft 99kts
02-Jan-21 10:48 34.515759 -119.851403 280 9982ft 100kts
02-Jan-21 10:49 34.518434 -119.884921 280 9982ft 100kts
02-Jan-21 10:50 34.520755 -119.918583 281 9988ft 99kts
02-Jan-21 10:51 34.522868 -119.952468 276 9977ft 101kts
02-Jan-21 10:52 34.523764 -119.986548 278 9974ft 100kts
02-Jan-21 10:53 34.526167 -120.020336 283 9962ft 100kts
02-Jan-21 10:54 34.530346 -120.053256 283 10007ft 98kts
02-Jan-21 10:55 34.536841 -120.084770 316 10001ft 98kts
02-Jan-21 10:56 34.557781 -120.105920 317 10001ft 98kts
02-Jan-21 10:57 34.578898 -120.126988 318 9997ft 98kts
02-Jan-21 10:58 34.599672 -120.148226 313 9996ft 97kts
02-Jan-21 10:59 34.620463 -120.169577 318 9999ft 97kts
02-Jan-21 11:00 34.642074 -120.189735 320 9996ft 98kts
02-Jan-21 11:01 34.663764 -120.209906 319 9993ft 98kts
02-Jan-21 11:02 34.685518 -120.229778 323 9997ft 98kts
02-Jan-21 11:03 34.707548 -120.249501 320 9988ft 98kts
02-Jan-21 11:04 34.728971 -120.269774 320 9990ft 97kts
02-Jan-21 11:05 34.750694 -120.289683 320 9984ft 98kts
02-Jan-21 11:06 34.771703 -120.310679 318 9978ft 97kts
02-Jan-21 11:07 34.792740 -120.331303 321 9969ft 98kts
02-Jan-21 11:08 34.815118 -120.349987 322 9996ft 96kts
02-Jan-21 11:09 34.836638 -120.369307 319 10019ft 96kts
02-Jan-21 11:10 34.857902 -120.389278 318 10017ft 96kts
02-Jan-21 11:11 34.879228 -120.409317 320 10018ft 97kts
02-Jan-21 11:12 34.901255 -120.428544 320 10014ft 97kts
02-Jan-21 11:13 34.922796 -120.448611 318 10009ft 98kts
02-Jan-21 11:14 34.943559 -120.470201 315 10007ft 98kts
02-Jan-21 11:15 34.964879 -120.491295 318 10003ft 99kts
02-Jan-21 11:16 34.986814 -120.511885 320 9999ft 100kts
02-Jan-21 11:17 35.009003 -120.532223 319 10019ft 99kts
02-Jan-21 11:18 35.030964 -120.553036 318 10036ft 100kts
02-Jan-21 11:19 35.052734 -120.574539 317 10043ft 101kts
02-Jan-21 11:20 35.074420 -120.596854 318 10023ft 102kts
02-Jan-21 11:21 35.097250 -120.617719 320 10004ft 103kts
02-Jan-21 11:22 35.120611 -120.638441 321 9985ft 104kts
02-Jan-21 11:23 35.144117 -120.658788 319 9989ft 103kts
02-Jan-21 11:24 35.167186 -120.679700 318 10001ft 103kts
02-Jan-21 11:25 35.190135 -120.700745 321 10012ft 103kts
02-Jan-21 11:26 35.214761 -120.719379 325 10013ft 105kts
02-Jan-21 11:27 35.239473 -120.738482 322 9975ft 106kts
02-Jan-21 11:28 35.260030 -120.763250 306 9977ft 101kts
02-Jan-21 11:29 35.277087 -120.790661 303 9985ft 103kts
02-Jan-21 11:30 35.293437 -120.819354 303 9981ft 102kts
02-Jan-21 11:31 35.310602 -120.847146 307 9981ft 102kts
02-Jan-21 11:32 35.328319 -120.874403 305 9979ft 102kts
02-Jan-21 11:33 35.346293 -120.901607 308 9975ft 102kts
02-Jan-21 11:34 35.364162 -120.928755 305 9973ft 102kts
02-Jan-21 11:35 35.379514 -120.957894 306 9984ft 101kts
02-Jan-21 11:36 35.396703 -120.985078 305 10022ft 100kts
02-Jan-21 11:37 35.413054 -121.012758 303 10036ft 101kts
02-Jan-21 11:38 35.431236 -121.040375 307 9939ft 105kts
02-Jan-21 11:39 35.446774 -121.069534 300 9961ft 99kts
02-Jan-21 11:40 35.464524 -121.095130 308 10013ft 100kts
02-Jan-21 11:41 35.482867 -121.121845 306 9995ft 102kts
02-Jan-21 11:42 35.500039 -121.149554 304 9995ft 101kts
02-Jan-21 11:43 35.517033 -121.177341 305 9997ft 101kts
02-Jan-21 11:44 35.534523 -121.204526 307 9996ft 101kts
02-Jan-21 11:45 35.552604 -121.231054 307 9992ft 101kts
02-Jan-21 11:46 35.570755 -121.257486 305 9982ft 101kts
02-Jan-21 11:47 35.588056 -121.284883 305 9984ft 101kts
02-Jan-21 11:48 35.604987 -121.312480 305 9977ft 101kts
02-Jan-21 11:49 35.622251 -121.339662 305 9974ft 101kts
02-Jan-21 11:50 35.644733 -121.359461 333 10019ft 103kts
02-Jan-21 11:51 35.671825 -121.371996 332 10001ft 106kts
02-Jan-21 11:52 35.698872 -121.385567 329 10008ft 104kts
02-Jan-21 11:53 35.725929 -121.398843 327 10011ft 104kts
02-Jan-21 11:54 35.752133 -121.414218 325 10013ft 103kts
02-Jan-21 11:55 35.777431 -121.431077 329 10007ft 104kts
02-Jan-21 11:57 35.804370 -121.445078 334 10005ft 105kts
02-Jan-21 11:58 35.831743 -121.457812 334 10003ft 105kts
02-Jan-21 11:59 35.859122 -121.470220 328 9995ft 104kts
02-Jan-21 12:00 35.885111 -121.485545 328 9985ft 103kts
02-Jan-21 12:01 35.910698 -121.500423 330 10013ft 101kts
02-Jan-21 12:02 35.936249 -121.515334 331 10009ft 102kts
02-Jan-21 12:03 35.960097 -121.525595 337 9497ft 85kts
02-Jan-21 12:04 35.982404 -121.535419 334 8965ft 84kts
02-Jan-21 12:05 36.004077 -121.547003 335 8414ft 86kts
02-Jan-21 12:06 36.025832 -121.559230 335 7875ft 86kts
02-Jan-21 12:07 36.048050 -121.570997 336 7344ft 87kts
02-Jan-21 12:08 36.070803 -121.582838 329 6711ft 100kts
02-Jan-21 12:09 36.097404 -121.594178 334 6167ft 101kts
02-Jan-21 12:10 36.124352 -121.608061 326 6020ft 117kts
02-Jan-21 12:11 36.151911 -121.627276 325 6007ft 112kts
02-Jan-21 12:12 36.180243 -121.643551 333 5994ft 112kts
02-Jan-21 12:13 36.209109 -121.657264 331 6041ft 109kts
02-Jan-21 12:14 36.232386 -121.681156 317 6028ft 108kts
02-Jan-21 12:14 36.251027 -121.701974 313 6028ft 108kts
02-Jan-21 12:15 36.272969 -121.727884 315 6020ft 108kts
02-Jan-21 12:17 36.299042 -121.757252 314 6012ft 109kts
02-Jan-21 12:17 36.317705 -121.778705 314 5999ft 109kts
02-Jan-21 12:18 36.339085 -121.805242 312 5987ft 109kts
02-Jan-21 12:19 36.360770 -121.831396 313 5984ft 108kts
02-Jan-21 12:20 36.382492 -121.857473 313 5996ft 107kts
02-Jan-21 12:21 36.403095 -121.883844 314 6039ft 107kts
02-Jan-21 12:22 36.424876 -121.909537 316 6038ft 109kts
02-Jan-21 12:23 36.447303 -121.935413 314 5982ft 110kts
02-Jan-21 12:24 36.468951 -121.961710 313 5985ft 109kts
02-Jan-21 12:25 36.490820 -121.987663 313 5988ft 108kts
02-Jan-21 12:26 36.513138 -122.011603 316 5791ft 95kts
02-Jan-21 12:27 36.531976 -122.032988 314 5273ft 91kts
02-Jan-21 12:28 36.550656 -122.054677 316 4774ft 94kts
02-Jan-21 12:29 36.570397 -122.076233 318 4252ft 95kts
02-Jan-21 12:30 36.590867 -122.097998 318 3719ft 95kts
02-Jan-21 12:31 36.610648 -122.120523 314 3182ft 97kts
02-Jan-21 12:32 36.628103 -122.105096 71 2987ft 102kts
02-Jan-21 12:33 36.637257 -122.069450 64 3035ft 114kts
02-Jan-21 12:34 36.642890 -122.032205 79 2974ft 108kts
02-Jan-21 12:35 36.639046 -121.996322 103 2656ft 111kts
02-Jan-21 12:36 36.625062 -121.961123 115 2091ft 112kts
02-Jan-21 12:37 36.615239 -121.923847 113 1396ft 117kts
02-Jan-21 12:38 36.615239 -121.923847 113 1396ft 117kts
02-Jan-21 12:39 36.615239 -121.923847 113 1396ft 117kts
02-Jan-21 12:40 36.615239 -121.923847 113 1396ft 117kts
02-Jan-21 12:41 36.615239 -121.923847 113 1396ft 117kts
02-Jan-21 12:42 36.615239 -121.923847 113 1396ft 117kts
02-Jan-21 12:43 36.615239 -121.923847 113 1396ft 117kts
02-Jan-21 12:44 36.615239 -121.923847 113 1396ft 117kts
02-Jan-21 12:45 36.615239 -121.923847 113 1396ft 117kts
02-Jan-21 12:46 36.615239 -121.923847 113 1396ft 117kts
02-Jan-21 12:47 36.612203 -121.917512 129 1321ft 113kts
02-Jan-21 12:48 36.600275 -121.884581 109 707ft 102kts
02-Jan-21 12:49 36.589943 -121.853203 113 205ft 79kts
02-Jan-21 12:50 36.587454 -121.847572 205 186ft 0kts
02-Jan-21 12:51 36.586964 -121.847981 219 189ft 0kts

Navigation Log

Ident Type
Flight plan parsing failed, navigation log unavailable